Aviation Digital Data Service (ADDS)

Output produced by METARs form (1309 UTC 19 January 2019)
found at http://www.aviationweather.gov/metar/data/
 
METAR text: ZGGG 191300Z VRB01MPS 7000 NSC 19/14 Q1018 NOSIG
Conditions at: ZGGG (GUANGZHOU/BAIYUN, CN) observed 1300 UTC 19 January 2019
Temperature: 19.0°C (66°F)
Dewpoint: 14.0°C (57°F) [RH = 73%]
Pressure (altimeter): 30.06 inches Hg (1018.0 mb)
Winds: variable direction winds at 2 MPH (2 knots; 1.0 m/s)
Visibility: 4 miles ( 7 km)
Ceiling: at least 12,000 feet AGL
Clouds: sky clear below 12,000 feet AGL
Weather: no significant weather observed at this time

METAR text: ZGGG 191230Z VRB01MPS 7000 NSC 20/14 Q1018 NOSIG
Conditions at: ZGGG (GUANGZHOU/BAIYUN, CN) observed 1230 UTC 19 January 2019
Temperature: 20.0°C (68°F)
Dewpoint: 14.0°C (57°F) [RH = 68%]
Pressure (altimeter): 30.06 inches Hg (1018.0 mb)
Winds: variable direction winds at 2 MPH (2 knots; 1.0 m/s)
Visibility: 4 miles ( 7 km)
Ceiling: at least 12,000 feet AGL
Clouds: sky clear below 12,000 feet AGL
Weather: no significant weather observed at this time

METAR text: ZGGG 191200Z 01001MPS 8000 NSC 20/13 Q1018 NOSIG
Conditions at: ZGGG (GUANGZHOU/BAIYUN, CN) observed 1200 UTC 19 January 2019
Temperature: 20.0°C (68°F)
Dewpoint: 13.0°C (55°F) [RH = 64%]
Pressure (altimeter): 30.06 inches Hg (1018.0 mb)
Winds: from the N (10 degrees) at 2 MPH (2 knots; 1.0 m/s)
Visibility: 5 miles ( 8 km)
Ceiling: at least 12,000 feet AGL
Clouds: sky clear below 12,000 feet AGL
Weather: no significant weather observed at this time

METAR text: ZGGG 191130Z 36002MPS 8000 NSC 21/13 Q1018 NOSIG
Conditions at: ZGGG (GUANGZHOU/BAIYUN, CN) observed 1130 UTC 19 January 2019
Temperature: 21.0°C (70°F)
Dewpoint: 13.0°C (55°F) [RH = 60%]
Pressure (altimeter): 30.06 inches Hg (1018.0 mb)
Winds: from the N (360 degrees) at 5 MPH (4 knots; 2.1 m/s)
Visibility: 5 miles ( 8 km)
Ceiling: at least 12,000 feet AGL
Clouds: sky clear below 12,000 feet AGL
Weather: no significant weather observed at this time

METAR text: ZGGG 191100Z 32002MPS 290V010 8000 NSC 22/12 Q1017 NOSIG
Conditions at: ZGGG (GUANGZHOU/BAIYUN, CN) observed 1100 UTC 19 January 2019
Temperature: 22.0°C (72°F)
Dewpoint: 12.0°C (54°F) [RH = 53%]
Pressure (altimeter): 30.03 inches Hg (1017.0 mb)
Winds: from the NW (320 degrees) at 5 MPH (4 knots; 2.1 m/s)
Visibility: 5 miles ( 8 km)
Ceiling: at least 12,000 feet AGL
Clouds: sky clear below 12,000 feet AGL
Weather: no significant weather observed at this time

METAR text: ZGGG 191030Z 28002MPS 250V310 7000 NSC 22/12 Q1017 NOSIG
Conditions at: ZGGG (GUANGZHOU/BAIYUN, CN) observed 1030 UTC 19 January 2019
Temperature: 22.0°C (72°F)
Dewpoint: 12.0°C (54°F) [RH = 53%]
Pressure (altimeter): 30.03 inches Hg (1017.0 mb)
Winds: from the W (280 degrees) at 5 MPH (4 knots; 2.1 m/s)
Visibility: 4 miles ( 7 km)
Ceiling: at least 12,000 feet AGL
Clouds: sky clear below 12,000 feet AGL
Weather: no significant weather observed at this time

METAR text: ZGGG 191000Z VRB01MPS 7000 NSC 22/12 Q1017 NOSIG
Conditions at: ZGGG (GUANGZHOU/BAIYUN, CN) observed 1000 UTC 19 January 2019
Temperature: 22.0°C (72°F)
Dewpoint: 12.0°C (54°F) [RH = 53%]
Pressure (altimeter): 30.03 inches Hg (1017.0 mb)
Winds: variable direction winds at 2 MPH (2 knots; 1.0 m/s)
Visibility: 4 miles ( 7 km)
Ceiling: at least 12,000 feet AGL
Clouds: sky clear below 12,000 feet AGL
Weather: no significant weather observed at this time

METAR text: ZGGG 190930Z VRB01MPS 7000 NSC 22/13 Q1017 NOSIG
Conditions at: ZGGG (GUANGZHOU/BAIYUN, CN) observed 0930 UTC 19 January 2019
Temperature: 22.0°C (72°F)
Dewpoint: 13.0°C (55°F) [RH = 57%]
Pressure (altimeter): 30.03 inches Hg (1017.0 mb)
Winds: variable direction winds at 2 MPH (2 knots; 1.0 m/s)
Visibility: 4 miles ( 7 km)
Ceiling: at least 12,000 feet AGL
Clouds: sky clear below 12,000 feet AGL
Weather: no significant weather observed at this time

METAR text: ZGGG 190900Z VRB01MPS 7000 NSC 23/13 Q1017 NOSIG
Conditions at: ZGGG (GUANGZHOU/BAIYUN, CN) observed 0900 UTC 19 January 2019
Temperature: 23.0°C (73°F)
Dewpoint: 13.0°C (55°F) [RH = 53%]
Pressure (altimeter): 30.03 inches Hg (1017.0 mb)
Winds: variable direction winds at 2 MPH (2 knots; 1.0 m/s)
Visibility: 4 miles ( 7 km)
Ceiling: at least 12,000 feet AGL
Clouds: sky clear below 12,000 feet AGL
Weather: no significant weather observed at this time

METAR text: ZGGG 190830Z 20002MPS 150V320 7000 NSC 24/13 Q1017 NOSIG
Conditions at: ZGGG (GUANGZHOU/BAIYUN, CN) observed 0830 UTC 19 January 2019
Temperature: 24.0°C (75°F)
Dewpoint: 13.0°C (55°F) [RH = 50%]
Pressure (altimeter): 30.03 inches Hg (1017.0 mb)
Winds: from the SSW (200 degrees) at 5 MPH (4 knots; 2.1 m/s)
Visibility: 4 miles ( 7 km)
Ceiling: at least 12,000 feet AGL
Clouds: sky clear below 12,000 feet AGL
Weather: no significant weather observed at this time

METAR text: ZGGG 190800Z VRB01MPS 7000 NSC 24/12 Q1017 NOSIG
Conditions at: ZGGG (GUANGZHOU/BAIYUN, CN) observed 0800 UTC 19 January 2019
Temperature: 24.0°C (75°F)
Dewpoint: 12.0°C (54°F) [RH = 47%]
Pressure (altimeter): 30.03 inches Hg (1017.0 mb)
Winds: variable direction winds at 2 MPH (2 knots; 1.0 m/s)
Visibility: 4 miles ( 7 km)
Ceiling: at least 12,000 feet AGL
Clouds: sky clear below 12,000 feet AGL
Weather: no significant weather observed at this time

METAR text: ZGGG 190730Z VRB01MPS 7000 NSC 24/12 Q1017 NOSIG
Conditions at: ZGGG (GUANGZHOU/BAIYUN, CN) observed 0730 UTC 19 January 2019
Temperature: 24.0°C (75°F)
Dewpoint: 12.0°C (54°F) [RH = 47%]
Pressure (altimeter): 30.03 inches Hg (1017.0 mb)
Winds: variable direction winds at 2 MPH (2 knots; 1.0 m/s)
Visibility: 4 miles ( 7 km)
Ceiling: at least 12,000 feet AGL
Clouds: sky clear below 12,000 feet AGL
Weather: no significant weather observed at this time

METAR text: ZGGG 190700Z VRB01MPS 7000 NSC 23/12 Q1017 NOSIG
Conditions at: ZGGG (GUANGZHOU/BAIYUN, CN) observed 0700 UTC 19 January 2019
Temperature: 23.0°C (73°F)
Dewpoint: 12.0°C (54°F) [RH = 50%]
Pressure (altimeter): 30.03 inches Hg (1017.0 mb)
Winds: variable direction winds at 2 MPH (2 knots; 1.0 m/s)
Visibility: 4 miles ( 7 km)
Ceiling: at least 12,000 feet AGL
Clouds: sky clear below 12,000 feet AGL
Weather: no significant weather observed at this time

METAR text: ZGGG 190630Z VRB01MPS 7000 NSC 23/12 Q1017 NOSIG
Conditions at: ZGGG (GUANGZHOU/BAIYUN, CN) observed 0630 UTC 19 January 2019
Temperature: 23.0°C (73°F)
Dewpoint: 12.0°C (54°F) [RH = 50%]
Pressure (altimeter): 30.03 inches Hg (1017.0 mb)
Winds: variable direction winds at 2 MPH (2 knots; 1.0 m/s)
Visibility: 4 miles ( 7 km)
Ceiling: at least 12,000 feet AGL
Clouds: sky clear below 12,000 feet AGL
Weather: no significant weather observed at this time

METAR text: ZGGG 190600Z 33001MPS 7000 NSC 23/12 Q1018 NOSIG
Conditions at: ZGGG (GUANGZHOU/BAIYUN, CN) observed 0600 UTC 19 January 2019
Temperature: 23.0°C (73°F)
Dewpoint: 12.0°C (54°F) [RH = 50%]
Pressure (altimeter): 30.06 inches Hg (1018.0 mb)
Winds: from the NNW (330 degrees) at 2 MPH (2 knots; 1.0 m/s)
Visibility: 4 miles ( 7 km)
Ceiling: at least 12,000 feet AGL
Clouds: sky clear below 12,000 feet AGL
Weather: no significant weather observed at this time

METAR text: ZGGG 190530Z VRB01MPS 7000 NSC 22/12 Q1018 NOSIG
Conditions at: ZGGG (GUANGZHOU/BAIYUN, CN) observed 0530 UTC 19 January 2019
Temperature: 22.0°C (72°F)
Dewpoint: 12.0°C (54°F) [RH = 53%]
Pressure (altimeter): 30.06 inches Hg (1018.0 mb)
Winds: variable direction winds at 2 MPH (2 knots; 1.0 m/s)
Visibility: 4 miles ( 7 km)
Ceiling: at least 12,000 feet AGL
Clouds: sky clear below 12,000 feet AGL
Weather: no significant weather observed at this time

METAR text: ZGGG 190500Z VRB01MPS 7000 NSC 22/11 Q1019 NOSIG
Conditions at: ZGGG (GUANGZHOU/BAIYUN, CN) observed 0500 UTC 19 January 2019
Temperature: 22.0°C (72°F)
Dewpoint: 11.0°C (52°F) [RH = 50%]
Pressure (altimeter): 30.09 inches Hg (1019.0 mb)
Winds: variable direction winds at 2 MPH (2 knots; 1.0 m/s)
Visibility: 4 miles ( 7 km)
Ceiling: at least 12,000 feet AGL
Clouds: sky clear below 12,000 feet AGL
Weather: no significant weather observed at this time

METAR text: ZGGG 190430Z VRB02MPS 7000 NSC 21/11 Q1020 NOSIG
Conditions at: ZGGG (GUANGZHOU/BAIYUN, CN) observed 0430 UTC 19 January 2019
Temperature: 21.0°C (70°F)
Dewpoint: 11.0°C (52°F) [RH = 53%]
Pressure (altimeter): 30.12 inches Hg (1020.0 mb)
Winds: variable direction winds at 5 MPH (4 knots; 2.1 m/s)
Visibility: 4 miles ( 7 km)
Ceiling: at least 12,000 feet AGL
Clouds: sky clear below 12,000 feet AGL
Weather: no significant weather observed at this time

METAR text: ZGGG 190400Z VRB02MPS 7000 NSC 20/11 Q1020 NOSIG
Conditions at: ZGGG (GUANGZHOU/BAIYUN, CN) observed 0400 UTC 19 January 2019
Temperature: 20.0°C (68°F)
Dewpoint: 11.0°C (52°F) [RH = 56%]
Pressure (altimeter): 30.12 inches Hg (1020.0 mb)
Winds: variable direction winds at 5 MPH (4 knots; 2.1 m/s)
Visibility: 4 miles ( 7 km)
Ceiling: at least 12,000 feet AGL
Clouds: sky clear below 12,000 feet AGL
Weather: no significant weather observed at this time

METAR text: ZGGG 190330Z 08003MPS 040V100 7000 NSC 19/11 Q1021 NOSIG
Conditions at: ZGGG (GUANGZHOU/BAIYUN, CN) observed 0330 UTC 19 January 2019
Temperature: 19.0°C (66°F)
Dewpoint: 11.0°C (52°F) [RH = 60%]
Pressure (altimeter): 30.15 inches Hg (1021.0 mb)
Winds: from the E (80 degrees) at 7 MPH (6 knots; 3.1 m/s)
Visibility: 4 miles ( 7 km)
Ceiling: at least 12,000 feet AGL
Clouds: sky clear below 12,000 feet AGL
Weather: no significant weather observed at this time

METAR text: ZGGG 190300Z 08003MPS 040V120 8000 NSC 18/10 Q1021 NOSIG
Conditions at: ZGGG (GUANGZHOU/BAIYUN, CN) observed 0300 UTC 19 January 2019
Temperature: 18.0°C (64°F)
Dewpoint: 10.0°C (50°F) [RH = 59%]
Pressure (altimeter): 30.15 inches Hg (1021.0 mb)
Winds: from the E (80 degrees) at 7 MPH (6 knots; 3.1 m/s)
Visibility: 5 miles ( 8 km)
Ceiling: at least 12,000 feet AGL
Clouds: sky clear below 12,000 feet AGL
Weather: no significant weather observed at this time

METAR text: ZGGG 190230Z 06003MPS 030V100 7000 NSC 18/11 Q1021 NOSIG
Conditions at: ZGGG (GUANGZHOU/BAIYUN, CN) observed 0230 UTC 19 January 2019
Temperature: 18.0°C (64°F)
Dewpoint: 11.0°C (52°F) [RH = 64%]
Pressure (altimeter): 30.15 inches Hg (1021.0 mb)
Winds: from the ENE (60 degrees) at 7 MPH (6 knots; 3.1 m/s)
Visibility: 4 miles ( 7 km)
Ceiling: at least 12,000 feet AGL
Clouds: sky clear below 12,000 feet AGL
Weather: no significant weather observed at this time

METAR text: ZGGG 190200Z 06002MPS 6000 NSC 17/10 Q1021 NOSIG
Conditions at: ZGGG (GUANGZHOU/BAIYUN, CN) observed 0200 UTC 19 January 2019
Temperature: 17.0°C (63°F)
Dewpoint: 10.0°C (50°F) [RH = 63%]
Pressure (altimeter): 30.15 inches Hg (1021.0 mb)
Winds: from the ENE (60 degrees) at 5 MPH (4 knots; 2.1 m/s)
Visibility: 4 miles ( 6 km)
Ceiling: at least 12,000 feet AGL
Clouds: sky clear below 12,000 feet AGL
Weather: no significant weather observed at this time

METAR text: ZGGG 190130Z 08002MPS 020V130 5000 HZ BKN060 16/10 Q1022 NOSIG
Conditions at: ZGGG (GUANGZHOU/BAIYUN, CN) observed 0130 UTC 19 January 2019
Temperature: 16.0°C (61°F)
Dewpoint: 10.0°C (50°F) [RH = 68%]
Pressure (altimeter): 30.18 inches Hg (1022.0 mb)
Winds: from the E (80 degrees) at 5 MPH (4 knots; 2.1 m/s)
Visibility: 3 miles ( 5 km)
Ceiling: 6000 feet AGL
Clouds: broken clouds at 6000 feet AGL
Weather: HZ  (haze)

METAR text: ZGGG 190100Z 10002MPS 5000 HZ BKN060 15/10 Q1021 NOSIG
Conditions at: ZGGG (GUANGZHOU/BAIYUN, CN) observed 0100 UTC 19 January 2019
Temperature: 15.0°C (59°F)
Dewpoint: 10.0°C (50°F) [RH = 72%]
Pressure (altimeter): 30.15 inches Hg (1021.0 mb)
Winds: from the E (100 degrees) at 5 MPH (4 knots; 2.1 m/s)
Visibility: 3 miles ( 5 km)
Ceiling: 6000 feet AGL
Clouds: broken clouds at 6000 feet AGL
Weather: HZ  (haze)

METAR text: ZGGG 190030Z 10002MPS 5000 HZ FEW030 BKN060 15/10 Q1021 NOSIG
Conditions at: ZGGG (GUANGZHOU/BAIYUN, CN) observed 0030 UTC 19 January 2019
Temperature: 15.0°C (59°F)
Dewpoint: 10.0°C (50°F) [RH = 72%]
Pressure (altimeter): 30.15 inches Hg (1021.0 mb)
Winds: from the E (100 degrees) at 5 MPH (4 knots; 2.1 m/s)
Visibility: 3 miles ( 5 km)
Ceiling: 6000 feet AGL
Clouds: few clouds at 3000 feet AGL
broken clouds at 6000 feet AGL
Weather: HZ  (haze)

METAR text: ZGGG 190000Z VRB01MPS 5000 HZ SCT030 SCT060 15/10 Q1021 NOSIG
Conditions at: ZGGG (GUANGZHOU/BAIYUN, CN) observed 0000 UTC 19 January 2019
Temperature: 15.0°C (59°F)
Dewpoint: 10.0°C (50°F) [RH = 72%]
Pressure (altimeter): 30.15 inches Hg (1021.0 mb)
Winds: variable direction winds at 2 MPH (2 knots; 1.0 m/s)
Visibility: 3 miles ( 5 km)
Ceiling: at least 12,000 feet AGL
Clouds: scattered clouds at 3000 feet AGL
scattered clouds at 6000 feet AGL
Weather: HZ  (haze)

METAR text: ZGGG 182330Z 08001MPS 5000 HZ BKN030 15/10 Q1021 NOSIG
Conditions at: ZGGG (GUANGZHOU/BAIYUN, CN) observed 2330 UTC 18 January 2019
Temperature: 15.0°C (59°F)
Dewpoint: 10.0°C (50°F) [RH = 72%]
Pressure (altimeter): 30.15 inches Hg (1021.0 mb)
Winds: from the E (80 degrees) at 2 MPH (2 knots; 1.0 m/s)
Visibility: 3 miles ( 5 km)
Ceiling: 3000 feet AGL
Clouds: broken clouds at 3000 feet AGL
Weather: HZ  (haze)

METAR text: ZGGG 182300Z 06001MPS 7000 BKN030 SCT056 15/10 Q1021 NOSIG
Conditions at: ZGGG (GUANGZHOU/BAIYUN, CN) observed 2300 UTC 18 January 2019
Temperature: 15.0°C (59°F)
Dewpoint: 10.0°C (50°F) [RH = 72%]
Pressure (altimeter): 30.15 inches Hg (1021.0 mb)
Winds: from the ENE (60 degrees) at 2 MPH (2 knots; 1.0 m/s)
Visibility: 4 miles ( 7 km)
Ceiling: 3000 feet AGL
Clouds: broken clouds at 3000 feet AGL
scattered clouds at 5600 feet AGL
Weather: no significant weather observed at this time

METAR text: ZGGG 182230Z VRB01MPS 7000 BKN056 15/10 Q1020 NOSIG
Conditions at: ZGGG (GUANGZHOU/BAIYUN, CN) observed 2230 UTC 18 January 2019
Temperature: 15.0°C (59°F)
Dewpoint: 10.0°C (50°F) [RH = 72%]
Pressure (altimeter): 30.12 inches Hg (1020.0 mb)
Winds: variable direction winds at 2 MPH (2 knots; 1.0 m/s)
Visibility: 4 miles ( 7 km)
Ceiling: 5600 feet AGL
Clouds: broken clouds at 5600 feet AGL
Weather: no significant weather observed at this time

METAR text: ZGGG 182200Z 07002MPS 7000 BKN056 15/10 Q1020 NOSIG
Conditions at: ZGGG (GUANGZHOU/BAIYUN, CN) observed 2200 UTC 18 January 2019
Temperature: 15.0°C (59°F)
Dewpoint: 10.0°C (50°F) [RH = 72%]
Pressure (altimeter): 30.12 inches Hg (1020.0 mb)
Winds: from the ENE (70 degrees) at 5 MPH (4 knots; 2.1 m/s)
Visibility: 4 miles ( 7 km)
Ceiling: 5600 feet AGL
Clouds: broken clouds at 5600 feet AGL
Weather: no significant weather observed at this time

METAR text: ZGGG 182130Z 07002MPS 7000 BKN056 15/09 Q1020 NOSIG
Conditions at: ZGGG (GUANGZHOU/BAIYUN, CN) observed 2130 UTC 18 January 2019
Temperature: 15.0°C (59°F)
Dewpoint: 9.0°C (48°F) [RH = 67%]
Pressure (altimeter): 30.12 inches Hg (1020.0 mb)
Winds: from the ENE (70 degrees) at 5 MPH (4 knots; 2.1 m/s)
Visibility: 4 miles ( 7 km)
Ceiling: 5600 feet AGL
Clouds: broken clouds at 5600 feet AGL
Weather: no significant weather observed at this time

METAR text: ZGGG 182100Z 10002MPS 7000 SCT030 SCT050 15/10 Q1020 NOSIG
Conditions at: ZGGG (GUANGZHOU/BAIYUN, CN) observed 2100 UTC 18 January 2019
Temperature: 15.0°C (59°F)
Dewpoint: 10.0°C (50°F) [RH = 72%]
Pressure (altimeter): 30.12 inches Hg (1020.0 mb)
Winds: from the E (100 degrees) at 5 MPH (4 knots; 2.1 m/s)
Visibility: 4 miles ( 7 km)
Ceiling: at least 12,000 feet AGL
Clouds: scattered clouds at 3000 feet AGL
scattered clouds at 5000 feet AGL
Weather: no significant weather observed at this time

METAR text: ZGGG 182030Z 10002MPS 7000 FEW033 BKN056 15/10 Q1020 NOSIG
Conditions at: ZGGG (GUANGZHOU/BAIYUN, CN) observed 2030 UTC 18 January 2019
Temperature: 15.0°C (59°F)
Dewpoint: 10.0°C (50°F) [RH = 72%]
Pressure (altimeter): 30.12 inches Hg (1020.0 mb)
Winds: from the E (100 degrees) at 5 MPH (4 knots; 2.1 m/s)
Visibility: 4 miles ( 7 km)
Ceiling: 5600 feet AGL
Clouds: few clouds at 3300 feet AGL
broken clouds at 5600 feet AGL
Weather: no significant weather observed at this time

METAR text: ZGGG 182000Z 10002MPS 7000 BKN033 15/10 Q1020 NOSIG
Conditions at: ZGGG (GUANGZHOU/BAIYUN, CN) observed 2000 UTC 18 January 2019
Temperature: 15.0°C (59°F)
Dewpoint: 10.0°C (50°F) [RH = 72%]
Pressure (altimeter): 30.12 inches Hg (1020.0 mb)
Winds: from the E (100 degrees) at 5 MPH (4 knots; 2.1 m/s)
Visibility: 4 miles ( 7 km)
Ceiling: 3300 feet AGL
Clouds: broken clouds at 3300 feet AGL
Weather: no significant weather observed at this time

METAR text: ZGGG 181930Z 07001MPS 7000 BKN033 15/10 Q1020 NOSIG
Conditions at: ZGGG (GUANGZHOU/BAIYUN, CN) observed 1930 UTC 18 January 2019
Temperature: 15.0°C (59°F)
Dewpoint: 10.0°C (50°F) [RH = 72%]
Pressure (altimeter): 30.12 inches Hg (1020.0 mb)
Winds: from the ENE (70 degrees) at 2 MPH (2 knots; 1.0 m/s)
Visibility: 4 miles ( 7 km)
Ceiling: 3300 feet AGL
Clouds: broken clouds at 3300 feet AGL
Weather: no significant weather observed at this time

METAR text: ZGGG 181900Z 06001MPS 7000 BKN033 15/10 Q1020 NOSIG
Conditions at: ZGGG (GUANGZHOU/BAIYUN, CN) observed 1900 UTC 18 January 2019
Temperature: 15.0°C (59°F)
Dewpoint: 10.0°C (50°F) [RH = 72%]
Pressure (altimeter): 30.12 inches Hg (1020.0 mb)
Winds: from the ENE (60 degrees) at 2 MPH (2 knots; 1.0 m/s)
Visibility: 4 miles ( 7 km)
Ceiling: 3300 feet AGL
Clouds: broken clouds at 3300 feet AGL
Weather: no significant weather observed at this time

METAR text: ZGGG 181830Z VRB01MPS 7000 BKN030 15/10 Q1020 NOSIG
Conditions at: ZGGG (GUANGZHOU/BAIYUN, CN) observed 1830 UTC 18 January 2019
Temperature: 15.0°C (59°F)
Dewpoint: 10.0°C (50°F) [RH = 72%]
Pressure (altimeter): 30.12 inches Hg (1020.0 mb)
Winds: variable direction winds at 2 MPH (2 knots; 1.0 m/s)
Visibility: 4 miles ( 7 km)
Ceiling: 3000 feet AGL
Clouds: broken clouds at 3000 feet AGL
Weather: no significant weather observed at this time

METAR text: ZGGG 181800Z VRB01MPS 7000 BKN030 16/09 Q1021 NOSIG
Conditions at: ZGGG (GUANGZHOU/BAIYUN, CN) observed 1800 UTC 18 January 2019
Temperature: 16.0°C (61°F)
Dewpoint: 9.0°C (48°F) [RH = 63%]
Pressure (altimeter): 30.15 inches Hg (1021.0 mb)
Winds: variable direction winds at 2 MPH (2 knots; 1.0 m/s)
Visibility: 4 miles ( 7 km)
Ceiling: 3000 feet AGL
Clouds: broken clouds at 3000 feet AGL
Weather: no significant weather observed at this time

METAR text: ZGGG 181730Z VRB01MPS 7000 BKN030 16/09 Q1021 NOSIG
Conditions at: ZGGG (GUANGZHOU/BAIYUN, CN) observed 1730 UTC 18 January 2019
Temperature: 16.0°C (61°F)
Dewpoint: 9.0°C (48°F) [RH = 63%]
Pressure (altimeter): 30.15 inches Hg (1021.0 mb)
Winds: variable direction winds at 2 MPH (2 knots; 1.0 m/s)
Visibility: 4 miles ( 7 km)
Ceiling: 3000 feet AGL
Clouds: broken clouds at 3000 feet AGL
Weather: no significant weather observed at this time

METAR text: ZGGG 181700Z 36001MPS 8000 BKN030 16/09 Q1021 NOSIG
Conditions at: ZGGG (GUANGZHOU/BAIYUN, CN) observed 1700 UTC 18 January 2019
Temperature: 16.0°C (61°F)
Dewpoint: 9.0°C (48°F) [RH = 63%]
Pressure (altimeter): 30.15 inches Hg (1021.0 mb)
Winds: from the N (360 degrees) at 2 MPH (2 knots; 1.0 m/s)
Visibility: 5 miles ( 8 km)
Ceiling: 3000 feet AGL
Clouds: broken clouds at 3000 feet AGL
Weather: no significant weather observed at this time

METAR text: ZGGG 181630Z 04001MPS 8000 BKN030 16/09 Q1021 NOSIG
Conditions at: ZGGG (GUANGZHOU/BAIYUN, CN) observed 1630 UTC 18 January 2019
Temperature: 16.0°C (61°F)
Dewpoint: 9.0°C (48°F) [RH = 63%]
Pressure (altimeter): 30.15 inches Hg (1021.0 mb)
Winds: from the NE (40 degrees) at 2 MPH (2 knots; 1.0 m/s)
Visibility: 5 miles ( 8 km)
Ceiling: 3000 feet AGL
Clouds: broken clouds at 3000 feet AGL
Weather: no significant weather observed at this time

METAR text: ZGGG 181600Z 05001MPS 8000 BKN050 15/09 Q1021 NOSIG
Conditions at: ZGGG (GUANGZHOU/BAIYUN, CN) observed 1600 UTC 18 January 2019
Temperature: 15.0°C (59°F)
Dewpoint: 9.0°C (48°F) [RH = 67%]
Pressure (altimeter): 30.15 inches Hg (1021.0 mb)
Winds: from the NE (50 degrees) at 2 MPH (2 knots; 1.0 m/s)
Visibility: 5 miles ( 8 km)
Ceiling: 5000 feet AGL
Clouds: broken clouds at 5000 feet AGL
Weather: no significant weather observed at this time

METAR text: ZGGG 181530Z 03002MPS 8000 BKN050 16/09 Q1021 NOSIG
Conditions at: ZGGG (GUANGZHOU/BAIYUN, CN) observed 1530 UTC 18 January 2019
Temperature: 16.0°C (61°F)
Dewpoint: 9.0°C (48°F) [RH = 63%]
Pressure (altimeter): 30.15 inches Hg (1021.0 mb)
Winds: from the NNE (30 degrees) at 5 MPH (4 knots; 2.1 m/s)
Visibility: 5 miles ( 8 km)
Ceiling: 5000 feet AGL
Clouds: broken clouds at 5000 feet AGL
Weather: no significant weather observed at this time

METAR text: ZGGG 181500Z 36002MPS 8000 BKN050 16/09 Q1021 NOSIG
Conditions at: ZGGG (GUANGZHOU/BAIYUN, CN) observed 1500 UTC 18 January 2019
Temperature: 16.0°C (61°F)
Dewpoint: 9.0°C (48°F) [RH = 63%]
Pressure (altimeter): 30.15 inches Hg (1021.0 mb)
Winds: from the N (360 degrees) at 5 MPH (4 knots; 2.1 m/s)
Visibility: 5 miles ( 8 km)
Ceiling: 5000 feet AGL
Clouds: broken clouds at 5000 feet AGL
Weather: no significant weather observed at this time

METAR text: ZGGG 181430Z 33003MPS 8000 BKN053 16/09 Q1021 NOSIG
Conditions at: ZGGG (GUANGZHOU/BAIYUN, CN) observed 1430 UTC 18 January 2019
Temperature: 16.0°C (61°F)
Dewpoint: 9.0°C (48°F) [RH = 63%]
Pressure (altimeter): 30.15 inches Hg (1021.0 mb)
Winds: from the NNW (330 degrees) at 7 MPH (6 knots; 3.1 m/s)
Visibility: 5 miles ( 8 km)
Ceiling: 5300 feet AGL
Clouds: broken clouds at 5300 feet AGL
Weather: no significant weather observed at this time

METAR text: ZGGG 181400Z VRB01MPS 8000 BKN056 16/09 Q1021 NOSIG
Conditions at: ZGGG (GUANGZHOU/BAIYUN, CN) observed 1400 UTC 18 January 2019
Temperature: 16.0°C (61°F)
Dewpoint: 9.0°C (48°F) [RH = 63%]
Pressure (altimeter): 30.15 inches Hg (1021.0 mb)
Winds: variable direction winds at 2 MPH (2 knots; 1.0 m/s)
Visibility: 5 miles ( 8 km)
Ceiling: 5600 feet AGL
Clouds: broken clouds at 5600 feet AGL
Weather: no significant weather observed at this time

METAR text: ZGGG 181330Z 05001MPS 8000 BKN056 16/09 Q1021 NOSIG
Conditions at: ZGGG (GUANGZHOU/BAIYUN, CN) observed 1330 UTC 18 January 2019
Temperature: 16.0°C (61°F)
Dewpoint: 9.0°C (48°F) [RH = 63%]
Pressure (altimeter): 30.15 inches Hg (1021.0 mb)
Winds: from the NE (50 degrees) at 2 MPH (2 knots; 1.0 m/s)
Visibility: 5 miles ( 8 km)
Ceiling: 5600 feet AGL
Clouds: broken clouds at 5600 feet AGL
Weather: no significant weather observed at this time

METAR text: ZGGG 181300Z VRB01MPS 8000 BKN050 16/09 Q1021 NOSIG
Conditions at: ZGGG (GUANGZHOU/BAIYUN, CN) observed 1300 UTC 18 January 2019
Temperature: 16.0°C (61°F)
Dewpoint: 9.0°C (48°F) [RH = 63%]
Pressure (altimeter): 30.15 inches Hg (1021.0 mb)
Winds: variable direction winds at 2 MPH (2 knots; 1.0 m/s)
Visibility: 5 miles ( 8 km)
Ceiling: 5000 feet AGL
Clouds: broken clouds at 5000 feet AGL
Weather: no significant weather observed at this time

METAR text: ZGGG 181230Z 10002MPS 8000 BKN050 17/09 Q1021 NOSIG
Conditions at: ZGGG (GUANGZHOU/BAIYUN, CN) observed 1230 UTC 18 January 2019
Temperature: 17.0°C (63°F)
Dewpoint: 9.0°C (48°F) [RH = 59%]
Pressure (altimeter): 30.15 inches Hg (1021.0 mb)
Winds: from the E (100 degrees) at 5 MPH (4 knots; 2.1 m/s)
Visibility: 5 miles ( 8 km)
Ceiling: 5000 feet AGL
Clouds: broken clouds at 5000 feet AGL
Weather: no significant weather observed at this time

METAR text: ZGGG 181200Z 11002MPS 8000 BKN050 17/09 Q1021 NOSIG
Conditions at: ZGGG (GUANGZHOU/BAIYUN, CN) observed 1200 UTC 18 January 2019
Temperature: 17.0°C (63°F)
Dewpoint: 9.0°C (48°F) [RH = 59%]
Pressure (altimeter): 30.15 inches Hg (1021.0 mb)
Winds: from the ESE (110 degrees) at 5 MPH (4 knots; 2.1 m/s)
Visibility: 5 miles ( 8 km)
Ceiling: 5000 feet AGL
Clouds: broken clouds at 5000 feet AGL
Weather: no significant weather observed at this time

METAR text: ZGGG 181130Z 10002MPS 080V140 8000 BKN050 17/09 Q1020 NOSIG
Conditions at: ZGGG (GUANGZHOU/BAIYUN, CN) observed 1130 UTC 18 January 2019
Temperature: 17.0°C (63°F)
Dewpoint: 9.0°C (48°F) [RH = 59%]
Pressure (altimeter): 30.12 inches Hg (1020.0 mb)
Winds: from the E (100 degrees) at 5 MPH (4 knots; 2.1 m/s)
Visibility: 5 miles ( 8 km)
Ceiling: 5000 feet AGL
Clouds: broken clouds at 5000 feet AGL
Weather: no significant weather observed at this time

METAR text: ZGGG 181100Z 09003MPS 8000 BKN046 17/09 Q1020 NOSIG
Conditions at: ZGGG (GUANGZHOU/BAIYUN, CN) observed 1100 UTC 18 January 2019
Temperature: 17.0°C (63°F)
Dewpoint: 9.0°C (48°F) [RH = 59%]
Pressure (altimeter): 30.12 inches Hg (1020.0 mb)
Winds: from the E (90 degrees) at 7 MPH (6 knots; 3.1 m/s)
Visibility: 5 miles ( 8 km)
Ceiling: 4600 feet AGL
Clouds: broken clouds at 4600 feet AGL
Weather: no significant weather observed at this time

METAR text: ZGGG 181030Z 05003MPS 020V080 8000 BKN040 17/09 Q1020 NOSIG
Conditions at: ZGGG (GUANGZHOU/BAIYUN, CN) observed 1030 UTC 18 January 2019
Temperature: 17.0°C (63°F)
Dewpoint: 9.0°C (48°F) [RH = 59%]
Pressure (altimeter): 30.12 inches Hg (1020.0 mb)
Winds: from the NE (50 degrees) at 7 MPH (6 knots; 3.1 m/s)
Visibility: 5 miles ( 8 km)
Ceiling: 4000 feet AGL
Clouds: broken clouds at 4000 feet AGL
Weather: no significant weather observed at this time

METAR text: ZGGG 181000Z 09002MPS 8000 BKN040 18/08 Q1020 NOSIG
Conditions at: ZGGG (GUANGZHOU/BAIYUN, CN) observed 1000 UTC 18 January 2019
Temperature: 18.0°C (64°F)
Dewpoint: 8.0°C (46°F) [RH = 52%]
Pressure (altimeter): 30.12 inches Hg (1020.0 mb)
Winds: from the E (90 degrees) at 5 MPH (4 knots; 2.1 m/s)
Visibility: 5 miles ( 8 km)
Ceiling: 4000 feet AGL
Clouds: broken clouds at 4000 feet AGL
Weather: no significant weather observed at this time

METAR text: ZGGG 180930Z 05002MPS 9999 BKN040 18/08 Q1020 NOSIG
Conditions at: ZGGG (GUANGZHOU/BAIYUN, CN) observed 0930 UTC 18 January 2019
Temperature: 18.0°C (64°F)
Dewpoint: 8.0°C (46°F) [RH = 52%]
Pressure (altimeter): 30.12 inches Hg (1020.0 mb)
Winds: from the NE (50 degrees) at 5 MPH (4 knots; 2.1 m/s)
Visibility: 6 or more miles (10+ km)
Ceiling: 4000 feet AGL
Clouds: broken clouds at 4000 feet AGL
Weather: no significant weather observed at this time

METAR text: ZGGG 180900Z VRB01MPS 9999 BKN040 18/08 Q1020 NOSIG
Conditions at: ZGGG (GUANGZHOU/BAIYUN, CN) observed 0900 UTC 18 January 2019
Temperature: 18.0°C (64°F)
Dewpoint: 8.0°C (46°F) [RH = 52%]
Pressure (altimeter): 30.12 inches Hg (1020.0 mb)
Winds: variable direction winds at 2 MPH (2 knots; 1.0 m/s)
Visibility: 6 or more miles (10+ km)
Ceiling: 4000 feet AGL
Clouds: broken clouds at 4000 feet AGL
Weather: no significant weather observed at this time

METAR text: ZGGG 180830Z VRB01MPS 9999 BKN043 18/08 Q1020 NOSIG
Conditions at: ZGGG (GUANGZHOU/BAIYUN, CN) observed 0830 UTC 18 January 2019
Temperature: 18.0°C (64°F)
Dewpoint: 8.0°C (46°F) [RH = 52%]
Pressure (altimeter): 30.12 inches Hg (1020.0 mb)
Winds: variable direction winds at 2 MPH (2 knots; 1.0 m/s)
Visibility: 6 or more miles (10+ km)
Ceiling: 4300 feet AGL
Clouds: broken clouds at 4300 feet AGL
Weather: no significant weather observed at this time

METAR text: ZGGG 180800Z VRB01MPS 9999 SCT046 18/08 Q1021 NOSIG
Conditions at: ZGGG (GUANGZHOU/BAIYUN, CN) observed 0800 UTC 18 January 2019
Temperature: 18.0°C (64°F)
Dewpoint: 8.0°C (46°F) [RH = 52%]
Pressure (altimeter): 30.15 inches Hg (1021.0 mb)
Winds: variable direction winds at 2 MPH (2 knots; 1.0 m/s)
Visibility: 6 or more miles (10+ km)
Ceiling: at least 12,000 feet AGL
Clouds: scattered clouds at 4600 feet AGL
Weather: no significant weather observed at this time

METAR text: ZGGG 180730Z VRB01MPS 9999 SCT046 18/07 Q1021 NOSIG
Conditions at: ZGGG (GUANGZHOU/BAIYUN, CN) observed 0730 UTC 18 January 2019
Temperature: 18.0°C (64°F)
Dewpoint: 7.0°C (45°F) [RH = 49%]
Pressure (altimeter): 30.15 inches Hg (1021.0 mb)
Winds: variable direction winds at 2 MPH (2 knots; 1.0 m/s)
Visibility: 6 or more miles (10+ km)
Ceiling: at least 12,000 feet AGL
Clouds: scattered clouds at 4600 feet AGL
Weather: no significant weather observed at this time

METAR text: ZGGG 180700Z 31002MPS 230V010 9999 SCT040 18/07 Q1021 NOSIG
Conditions at: ZGGG (GUANGZHOU/BAIYUN, CN) observed 0700 UTC 18 January 2019
Temperature: 18.0°C (64°F)
Dewpoint: 7.0°C (45°F) [RH = 49%]
Pressure (altimeter): 30.15 inches Hg (1021.0 mb)
Winds: from the NW (310 degrees) at 5 MPH (4 knots; 2.1 m/s)
Visibility: 6 or more miles (10+ km)
Ceiling: at least 12,000 feet AGL
Clouds: scattered clouds at 4000 feet AGL
Weather: no significant weather observed at this time

METAR text: ZGGG 180630Z 31002MPS 260V040 9999 SCT040 18/07 Q1021 NOSIG
Conditions at: ZGGG (GUANGZHOU/BAIYUN, CN) observed 0630 UTC 18 January 2019
Temperature: 18.0°C (64°F)
Dewpoint: 7.0°C (45°F) [RH = 49%]
Pressure (altimeter): 30.15 inches Hg (1021.0 mb)
Winds: from the NW (310 degrees) at 5 MPH (4 knots; 2.1 m/s)
Visibility: 6 or more miles (10+ km)
Ceiling: at least 12,000 feet AGL
Clouds: scattered clouds at 4000 feet AGL
Weather: no significant weather observed at this time

METAR text: ZGGG 180600Z 32002MPS 250V350 9999 BKN040 17/07 Q1022 NOSIG
Conditions at: ZGGG (GUANGZHOU/BAIYUN, CN) observed 0600 UTC 18 January 2019
Temperature: 17.0°C (63°F)
Dewpoint: 7.0°C (45°F) [RH = 52%]
Pressure (altimeter): 30.18 inches Hg (1022.0 mb)
Winds: from the NW (320 degrees) at 5 MPH (4 knots; 2.1 m/s)
Visibility: 6 or more miles (10+ km)
Ceiling: 4000 feet AGL
Clouds: broken clouds at 4000 feet AGL
Weather: no significant weather observed at this time

METAR text: ZGGG 180530Z VRB02MPS 9999 BKN040 16/06 Q1022 NOSIG
Conditions at: ZGGG (GUANGZHOU/BAIYUN, CN) observed 0530 UTC 18 January 2019
Temperature: 16.0°C (61°F)
Dewpoint: 6.0°C (43°F) [RH = 51%]
Pressure (altimeter): 30.18 inches Hg (1022.0 mb)
Winds: variable direction winds at 5 MPH (4 knots; 2.1 m/s)
Visibility: 6 or more miles (10+ km)
Ceiling: 4000 feet AGL
Clouds: broken clouds at 4000 feet AGL
Weather: no significant weather observed at this time

METAR text: ZGGG 180500Z 36002MPS 290V040 9999 OVC040 15/06 Q1023 NOSIG
Conditions at: ZGGG (GUANGZHOU/BAIYUN, CN) observed 0500 UTC 18 January 2019
Temperature: 15.0°C (59°F)
Dewpoint: 6.0°C (43°F) [RH = 55%]
Pressure (altimeter): 30.21 inches Hg (1023.0 mb)
Winds: from the N (360 degrees) at 5 MPH (4 knots; 2.1 m/s)
Visibility: 6 or more miles (10+ km)
Ceiling: 4000 feet AGL
Clouds: overcast cloud deck at 4000 feet AGL
Weather: no significant weather observed at this time

METAR text: ZGGG 180430Z 33002MPS 290V040 9999 OVC040 15/06 Q1024 NOSIG
Conditions at: ZGGG (GUANGZHOU/BAIYUN, CN) observed 0430 UTC 18 January 2019
Temperature: 15.0°C (59°F)
Dewpoint: 6.0°C (43°F) [RH = 55%]
Pressure (altimeter): 30.24 inches Hg (1024.0 mb)
Winds: from the NNW (330 degrees) at 5 MPH (4 knots; 2.1 m/s)
Visibility: 6 or more miles (10+ km)
Ceiling: 4000 feet AGL
Clouds: overcast cloud deck at 4000 feet AGL
Weather: no significant weather observed at this time

METAR text: ZGGG 180400Z VRB01MPS 9999 OVC040 14/06 Q1025 NOSIG
Conditions at: ZGGG (GUANGZHOU/BAIYUN, CN) observed 0400 UTC 18 January 2019
Temperature: 14.0°C (57°F)
Dewpoint: 6.0°C (43°F) [RH = 58%]
Pressure (altimeter): 30.27 inches Hg (1025.0 mb)
Winds: variable direction winds at 2 MPH (2 knots; 1.0 m/s)
Visibility: 6 or more miles (10+ km)
Ceiling: 4000 feet AGL
Clouds: overcast cloud deck at 4000 feet AGL
Weather: no significant weather observed at this time

METAR text: ZGGG 180330Z VRB01MPS 9999 OVC040 13/06 Q1025 NOSIG
Conditions at: ZGGG (GUANGZHOU/BAIYUN, CN) observed 0330 UTC 18 January 2019
Temperature: 13.0°C (55°F)
Dewpoint: 6.0°C (43°F) [RH = 62%]
Pressure (altimeter): 30.27 inches Hg (1025.0 mb)
Winds: variable direction winds at 2 MPH (2 knots; 1.0 m/s)
Visibility: 6 or more miles (10+ km)
Ceiling: 4000 feet AGL
Clouds: overcast cloud deck at 4000 feet AGL
Weather: no significant weather observed at this time

METAR text: ZGGG 180300Z VRB01MPS 9999 OVC040 13/06 Q1026 NOSIG
Conditions at: ZGGG (GUANGZHOU/BAIYUN, CN) observed 0300 UTC 18 January 2019
Temperature: 13.0°C (55°F)
Dewpoint: 6.0°C (43°F) [RH = 62%]
Pressure (altimeter): 30.30 inches Hg (1026.0 mb)
Winds: variable direction winds at 2 MPH (2 knots; 1.0 m/s)
Visibility: 6 or more miles (10+ km)
Ceiling: 4000 feet AGL
Clouds: overcast cloud deck at 4000 feet AGL
Weather: no significant weather observed at this time

METAR text: ZGGG 180230Z 33002MPS 290V030 9999 OVC040 12/05 Q1026 NOSIG
Conditions at: ZGGG (GUANGZHOU/BAIYUN, CN) observed 0230 UTC 18 January 2019
Temperature: 12.0°C (54°F)
Dewpoint: 5.0°C (41°F) [RH = 62%]
Pressure (altimeter): 30.30 inches Hg (1026.0 mb)
Winds: from the NNW (330 degrees) at 5 MPH (4 knots; 2.1 m/s)
Visibility: 6 or more miles (10+ km)
Ceiling: 4000 feet AGL
Clouds: overcast cloud deck at 4000 feet AGL
Weather: no significant weather observed at this time

METAR text: ZGGG 180200Z VRB01MPS 9999 OVC040 12/05 Q1026 NOSIG
Conditions at: ZGGG (GUANGZHOU/BAIYUN, CN) observed 0200 UTC 18 January 2019
Temperature: 12.0°C (54°F)
Dewpoint: 5.0°C (41°F) [RH = 62%]
Pressure (altimeter): 30.30 inches Hg (1026.0 mb)
Winds: variable direction winds at 2 MPH (2 knots; 1.0 m/s)
Visibility: 6 or more miles (10+ km)
Ceiling: 4000 feet AGL
Clouds: overcast cloud deck at 4000 feet AGL
Weather: no significant weather observed at this time

METAR text: ZGGG 180130Z VRB01MPS 9999 OVC043 11/05 Q1026 NOSIG
Conditions at: ZGGG (GUANGZHOU/BAIYUN, CN) observed 0130 UTC 18 January 2019
Temperature: 11.0°C (52°F)
Dewpoint: 5.0°C (41°F) [RH = 66%]
Pressure (altimeter): 30.30 inches Hg (1026.0 mb)
Winds: variable direction winds at 2 MPH (2 knots; 1.0 m/s)
Visibility: 6 or more miles (10+ km)
Ceiling: 4300 feet AGL
Clouds: overcast cloud deck at 4300 feet AGL
Weather: no significant weather observed at this time

Forecast for: ZGGG (GUANGZHOU/BAIYUN, CN)
Text: TAF ZGGG 190904Z 1912/2012 06003MPS 6000 BKN040 TX22/2007Z TN16/1922Z
Forecast period: 1200 to 2100 UTC 19 January 2019
Forecast type: FROM: standard forecast or significant change
Winds: from the ENE (60 degrees) at 7 MPH (6 knots; 3.1 m/s)
Visibility: 4 miles (6 km)
Ceiling: 4000 feet AGL
Clouds: broken clouds at 4000 feet AGL
Weather: no significant weather forecast for this period
Text: BECMG 1921/1922 3500 BR
Forecast period: 2100 UTC 19 January 2019 to 0400 UTC 20 January 2019
Forecast type: BECOMING: Conditions expected to become as follows by 2200 UTC 19 January 2019
Winds: from the ENE (60 degrees) at 7 MPH (6 knots; 3.1 m/s)
Visibility: 2.17 miles (3.49 km)
Ceiling: 4000 feet AGL
Clouds: broken clouds at 4000 feet AGL
Weather: BR  (mist)
Text: BECMG 2004/2005 36005MPS 8000
Forecast period: 0400 to 1200 UTC 20 January 2019
Forecast type: BECOMING: Conditions expected to become as follows by 0500 UTC 20 January 2019
Winds: from the N (360 degrees) at 12 MPH (10 knots; 5.1 m/s)
Visibility: 5 miles (8 km)
Ceiling: 4000 feet AGL
Clouds: broken clouds at 4000 feet AGL
Weather: BR  (mist)